Time;durP1;ratioP1;P1;durP2;ratioP2;P2;SDS_P1;SDS_P2;PMS_P1;PMS_P2;Temp;Humidity;BMP_temperature;BMP_pressure;BME280_temperature;BME280_humidity;BME280_pressure;Samples;Min_cycle;Max_cycle;Signal;HPM_P1;HPM_P2
2023/10/21 00:01:58;;;;;;;0.20;0.20;;;;;;;22.40;100.00;98910.34;4978456;28;20113;-89
2023/10/21 00:04:23;;;;;;;0.20;0.20;;;;;;;22.43;100.00;98900.91;4978183;28;20470;-88
2023/10/21 00:06:49;;;;;;;0.17;0.17;;;;;;;22.41;100.00;98885.63;4978315;28;20050;-88
2023/10/21 00:09:14;;;;;;;0.20;0.20;;;;;;;22.51;100.00;98898.50;4995676;28;20030;-89
2023/10/21 00:11:40;;;;;;;0.20;0.20;;;;;;;22.51;100.00;98941.03;4978253;28;20030;-89
2023/10/21 00:14:06;;;;;;;0.20;0.20;;;;;;;22.51;100.00;98968.56;4978114;28;20026;-88
2023/10/21 00:16:32;;;;;;;0.20;0.20;;;;;;;22.42;100.00;98978.66;4995502;28;20393;-88
2023/10/21 00:18:58;;;;;;;0.10;0.10;;;;;;;22.49;100.00;99003.84;4978265;28;20113;-88
2023/10/21 00:21:23;;;;;;;0.20;0.20;;;;;;;22.52;100.00;98987.94;4978261;28;20556;-90
2023/10/21 00:23:48;;;;;;;0.20;0.20;;;;;;;22.45;100.00;98972.03;4977738;28;20109;-88
2023/10/21 00:26:16;;;;;;;0.20;0.20;;;;;;;22.58;100.00;98965.41;4978553;28;20037;-89
2023/10/21 00:28:41;;;;;;;0.10;0.10;;;;;;;22.41;100.00;98945.91;4977791;28;20031;-88
2023/10/21 00:31:07;;;;;;;0.20;0.20;;;;;;;22.45;100.00;98979.75;4978195;28;20044;-89
2023/10/21 00:33:33;;;;;;;0.20;0.20;;;;;;;22.59;100.00;99063.38;4978066;28;20125;-89
2023/10/21 00:35:59;;;;;;;0.20;0.20;;;;;;;22.47;100.00;99063.03;4977938;28;20553;-90
2023/10/21 00:38:24;;;;;;;0.10;0.10;;;;;;;22.39;100.00;99058.94;4978092;28;20022;-88
2023/10/21 00:40:55;;;;;;;0.10;0.10;;;;;;;22.55;100.00;99094.72;4978170;28;20451;-89
2023/10/21 00:43:34;;;;;;;0.20;0.20;;;;;;;22.49;100.00;99085.25;4978715;28;20022;-90
2023/10/21 00:46:09;;;;;;;0.15;0.15;;;;;;;22.48;100.00;99073.13;4995356;28;20041;-89
2023/10/21 00:48:35;;;;;;;0.20;0.20;;;;;;;22.44;100.00;99083.84;4977941;28;20374;-88
2023/10/21 00:51:00;;;;;;;0.10;0.10;;;;;;;22.34;100.00;99062.41;4977757;28;20030;-89
2023/10/21 00:53:26;;;;;;;0.10;0.10;;;;;;;22.36;100.00;99059.09;4995569;28;20427;-89
2023/10/21 00:55:51;;;;;;;0.20;0.20;;;;;;;22.40;100.00;99051.25;4995195;28;20520;-87
2023/10/21 00:58:19;;;;;;;0.20;0.20;;;;;;;22.51;100.00;99053.59;4977122;28;20126;-88
2023/10/21 01:00:44;;;;;;;0.20;0.20;;;;;;;22.35;100.00;99049.81;4977640;28;20038;-88
2023/10/21 01:03:10;;;;;;;0.10;0.10;;;;;;;22.36;100.00;99059.88;4994629;28;20105;-89
2023/10/21 01:05:35;;;;;;;0.10;0.10;;;;;;;22.20;100.00;99057.34;4977174;28;20120;-89
2023/10/21 01:08:00;;;;;;;0.20;0.20;;;;;;;22.36;100.00;99087.44;4994951;28;20046;-89
2023/10/21 01:10:26;;;;;;;0.10;0.10;;;;;;;22.33;100.00;99103.34;4971933;28;20027;-89
2023/10/21 01:12:51;;;;;;;0.20;0.20;;;;;;;22.29;100.00;99107.56;4957824;28;20026;-90
2023/10/21 01:15:17;;;;;;;0.20;0.20;;;;;;;22.02;100.00;99063.75;4957765;28;20069;-88
2023/10/21 01:17:49;;;;;;;0.10;0.10;;;;;;;22.23;100.00;99108.19;4957972;28;20030;-88
2023/10/21 01:20:16;;;;;;;0.10;0.10;;;;;;;22.17;100.00;99098.75;4974886;28;20360;-89
2023/10/21 01:22:45;;;;;;;0.10;0.10;;;;;;;22.10;100.00;99078.38;4957902;28;20026;-88
2023/10/21 01:25:11;;;;;;;0.20;0.20;;;;;;;22.09;100.00;99062.66;4957775;28;20038;-88
2023/10/21 01:27:36;;;;;;;0.20;0.20;;;;;;;22.12;100.00;99050.41;4957615;28;20177;-88
2023/10/21 01:30:05;;;;;;;0.20;0.20;;;;;;;22.29;100.00;99042.41;4957534;28;20023;-88
2023/10/21 01:32:30;;;;;;;0.10;0.10;;;;;;;22.31;100.00;99034.22;4973977;28;20077;-89
2023/10/21 01:34:56;;;;;;;0.20;0.20;;;;;;;22.15;100.00;99023.97;4957808;28;20395;-88
2023/10/21 01:37:21;;;;;;;0.20;0.20;;;;;;;22.18;100.00;99025.88;4974692;28;20364;-88
2023/10/21 01:39:47;;;;;;;0.20;0.20;;;;;;;22.22;100.00;99035.00;4974688;28;20038;-89
2023/10/21 01:42:12;;;;;;;0.10;0.10;;;;;;;22.15;100.00;99044.59;4994980;28;20030;-88
2023/10/21 01:44:37;;;;;;;0.10;0.10;;;;;;;21.99;100.00;99042.00;4992509;28;20511;-88
2023/10/21 01:47:03;;;;;;;0.20;0.20;;;;;;;21.90;100.00;99045.63;4973874;28;20045;-88
2023/10/21 01:49:28;;;;;;;0.20;0.20;;;;;;;22.02;100.00;99071.44;4992378;28;20027;-89
2023/10/21 01:51:54;;;;;;;0.20;0.20;;;;;;;22.03;100.00;99064.53;4975534;28;20032;-88
2023/10/21 01:54:19;;;;;;;0.20;0.20;;;;;;;21.92;100.00;99043.09;4992999;28;20405;-90
2023/10/21 01:56:45;;;;;;;0.20;0.20;;;;;;;22.04;100.00;99037.78;4975463;28;20478;-89
2023/10/21 01:59:12;;;;;;;0.20;0.20;;;;;;;21.98;100.00;99014.94;4975253;28;20034;-89
2023/10/21 02:01:37;;;;;;;0.20;0.20;;;;;;;21.82;100.00;98969.94;4975673;28;20041;-89
2023/10/21 02:04:05;;;;;;;0.10;0.10;;;;;;;21.80;100.00;98976.06;4975626;28;20019;-89
2023/10/21 02:06:30;;;;;;;0.10;0.10;;;;;;;21.84;100.00;98979.53;4975474;28;20031;-88
2023/10/21 02:08:56;;;;;;;0.10;0.10;;;;;;;21.84;100.00;98973.06;4977248;28;20109;-88
2023/10/21 02:11:24;;;;;;;0.20;0.20;;;;;;;21.78;100.00;98967.25;4981577;28;20054;-88
2023/10/21 02:13:50;;;;;;;0.20;0.20;;;;;;;21.85;100.00;98992.44;4975398;28;20035;-89
2023/10/21 02:16:16;;;;;;;0.10;0.10;;;;;;;21.66;100.00;98971.00;4975177;28;20141;-89
2023/10/21 02:18:41;;;;;;;0.10;0.10;;;;;;;21.84;100.00;99019.19;4975343;28;20022;-89
2023/10/21 02:21:07;;;;;;;0.20;0.20;;;;;;;21.90;100.00;99031.47;4994645;28;20074;-88
2023/10/21 02:23:33;;;;;;;0.10;0.10;;;;;;;21.92;100.00;99026.09;4975341;28;20038;-90
2023/10/21 02:26:03;;;;;;;0.10;0.10;;;;;;;21.93;100.00;99036.16;4975109;28;20060;-89
2023/10/21 02:28:29;;;;;;;0.20;0.20;;;;;;;21.94;100.00;99026.44;4988477;28;20041;-88
2023/10/21 02:30:55;;;;;;;0.20;0.20;;;;;;;21.77;100.00;99010.97;4974943;28;20034;-88
2023/10/21 02:33:21;;;;;;;0.10;0.10;;;;;;;21.87;100.00;99008.94;4974954;28;20065;-89
2023/10/21 02:35:52;;;;;;;0.10;0.10;;;;;;;21.74;100.00;98986.44;4975050;28;20034;-89
2023/10/21 02:38:17;;;;;;;0.10;0.10;;;;;;;21.71;100.00;98998.69;4975032;28;20523;-89
2023/10/21 02:40:43;;;;;;;0.20;0.20;;;;;;;21.52;100.00;98977.22;4975115;28;20085;-89
2023/10/21 02:43:09;;;;;;;0.20;0.20;;;;;;;21.47;100.00;99015.44;4992566;28;20246;-89
2023/10/21 02:45:35;;;;;;;0.20;0.20;;;;;;;21.53;100.00;99039.03;4975334;28;20470;-89
2023/10/21 02:48:00;;;;;;;0.17;0.17;;;;;;;21.61;100.00;99014.84;4974663;28;20034;-89
2023/10/21 02:50:26;;;;;;;0.20;0.20;;;;;;;21.50;100.00;98980.53;4974952;28;20386;-90
2023/10/21 02:52:52;;;;;;;0.20;0.20;;;;;;;21.62;100.00;99012.78;4975298;28;20053;-89
2023/10/21 02:55:18;;;;;;;0.10;0.10;;;;;;;21.56;100.00;98998.47;4974977;28;20054;-89
2023/10/21 02:57:44;;;;;;;0.20;0.20;;;;;;;21.42;100.00;98977.22;4974648;28;20030;-89
2023/10/21 03:00:15;;;;;;;0.20;0.20;;;;;;;21.62;100.00;98990.94;4991973;28;20026;-89
2023/10/21 03:02:44;;;;;;;0.20;0.20;;;;;;;21.54;100.00;98971.91;4974856;28;20061;-89
2023/10/21 03:05:09;;;;;;;0.10;0.10;;;;;;;21.40;100.00;98951.41;4992216;28;20114;-89
2023/10/21 03:07:35;;;;;;;0.20;0.20;;;;;;;21.33;100.00;98948.88;4974504;28;20145;-89
2023/10/21 03:10:01;;;;;;;0.10;0.10;;;;;;;21.42;100.00;98982.09;4974864;28;20026;-89
2023/10/21 03:12:26;;;;;;;0.20;0.20;;;;;;;21.22;100.00;98985.28;4992229;28;20031;-90
2023/10/21 03:14:52;;;;;;;0.13;0.13;;;;;;;21.21;100.00;99012.00;4992332;28;20328;-89
2023/10/21 03:17:19;;;;;;;0.20;0.20;;;;;;;21.04;100.00;99014.25;4992219;28;20298;-89
2023/10/21 03:19:45;;;;;;;0.20;0.20;;;;;;;21.10;100.00;99042.72;4974597;28;20505;-88
2023/10/21 03:22:10;;;;;;;0.20;0.20;;;;;;;21.05;100.00;99049.75;4974518;28;20099;-90
2023/10/21 03:24:35;;;;;;;0.20;0.20;;;;;;;21.01;100.00;99088.69;4975063;28;20395;-90
2023/10/21 03:27:02;;;;;;;0.20;0.20;;;;;;;20.90;100.00;99077.78;4974969;28;20030;-91
2023/10/21 03:29:28;;;;;;;0.20;0.20;;;;;;;20.98;100.00;99071.84;4975168;28;20022;-91
2023/10/21 03:31:53;;;;;;;0.20;0.20;;;;;;;20.83;100.00;99017.91;4974916;28;20037;-90
2023/10/21 03:34:18;;;;;;;0.20;0.20;;;;;;;20.83;100.00;99004.53;4992447;28;20030;-90
2023/10/21 03:36:45;;;;;;;0.20;0.20;;;;;;;20.73;100.00;98990.81;4992276;28;20080;-90
2023/10/21 03:39:11;;;;;;;0.20;0.20;;;;;;;20.69;100.00;98962.69;4977116;28;20053;-91
2023/10/21 03:41:36;;;;;;;0.20;0.20;;;;;;;20.73;100.00;98985.16;4996001;28;20022;-91
2023/10/21 03:44:03;;;;;;;0.20;0.20;;;;;;;20.56;100.00;98978.91;4978881;28;20030;-91
2023/10/21 03:46:30;;;;;;;0.20;0.20;;;;;;;20.78;100.00;99007.97;4978897;28;20073;-90
2023/10/21 03:48:56;;;;;;;0.20;0.20;;;;;;;20.75;100.00;99023.00;4995724;28;20493;-91
2023/10/21 03:51:21;;;;;;;0.20;0.20;;;;;;;20.81;100.00;99049.44;4978677;28;20129;-90
2023/10/21 03:53:47;;;;;;;0.20;0.20;;;;;;;20.75;100.00;99031.50;4978124;28;20263;-90
2023/10/21 03:56:14;;;;;;;0.20;0.20;;;;;;;20.72;100.00;99009.81;4978486;28;20088;-90
2023/10/21 03:58:40;;;;;;;0.20;0.20;;;;;;;20.79;100.00;98992.56;4978063;28;20018;-89
2023/10/21 04:01:06;;;;;;;0.20;0.20;;;;;;;20.79;100.00;98995.41;4979062;28;20038;-90
2023/10/21 04:03:32;;;;;;;0.20;0.20;;;;;;;20.69;100.00;98970.38;4996691;28;20525;-90
2023/10/21 04:05:58;;;;;;;0.20;0.20;;;;;;;20.76;100.00;98975.75;4979244;28;20023;-88
2023/10/21 04:08:26;;;;;;;0.20;0.20;;;;;;;20.50;100.00;98955.31;5002145;28;20503;-89
2023/10/21 04:10:52;;;;;;;0.20;0.20;;;;;;;20.76;100.00;99001.97;4998043;28;20132;-90
2023/10/21 04:13:18;;;;;;;0.20;0.20;;;;;;;20.59;100.00;98980.81;4997578;28;20501;-91
2023/10/21 04:15:44;;;;;;;0.20;0.20;;;;;;;20.66;100.00;98958.72;4997703;28;20022;-89
2023/10/21 04:18:10;;;;;;;0.10;0.10;;;;;;;20.70;100.00;98944.47;4997198;28;20022;-90
2023/10/21 04:20:35;;;;;;;0.20;0.20;;;;;;;20.59;100.00;98921.47;4997212;28;20026;-90
2023/10/21 04:23:01;;;;;;;0.20;0.20;;;;;;;20.72;100.00;98941.97;4996929;28;20025;-90
2023/10/21 04:25:28;;;;;;;0.20;0.20;;;;;;;20.78;100.00;98950.66;4994556;28;20378;-90
2023/10/21 04:27:54;;;;;;;0.20;0.20;;;;;;;20.72;100.00;98973.06;4996982;28;20135;-90
2023/10/21 04:30:19;;;;;;;0.20;0.20;;;;;;;20.76;100.00;99001.97;4996626;28;20026;-90
2023/10/21 04:32:45;;;;;;;0.20;0.20;;;;;;;20.58;100.00;99016.75;4996721;28;20064;-90
2023/10/21 04:35:10;;;;;;;0.20;0.20;;;;;;;20.48;100.00;99020.75;4996904;28;20049;-90
2023/10/21 04:37:36;;;;;;;0.20;0.20;;;;;;;20.52;100.00;99021.44;4996712;28;20040;-90
2023/10/21 04:40:03;;;;;;;0.20;0.20;;;;;;;20.55;100.00;98997.88;4994340;28;20040;-90
2023/10/21 04:42:28;;;;;;;0.20;0.20;;;;;;;20.36;100.00;99002.59;4976744;28;20080;-90
2023/10/21 04:44:54;;;;;;;0.10;0.10;;;;;;;20.30;100.00;98961.28;4977065;28;20026;-90
2023/10/21 04:47:20;;;;;;;0.20;0.20;;;;;;;20.23;100.00;98959.47;4977140;28;20034;-91
2023/10/21 04:49:46;;;;;;;0.20;0.20;;;;;;;20.49;100.00;98974.31;4976574;28;20077;-90
2023/10/21 04:52:12;;;;;;;0.20;0.20;;;;;;;20.38;100.00;98963.38;4993782;28;20098;-91
2023/10/21 04:54:38;;;;;;;0.10;0.10;;;;;;;20.42;100.00;98980.97;4976872;28;20046;-91
2023/10/21 04:57:03;;;;;;;0.20;0.20;;;;;;;19.99;100.00;98925.25;4976429;28;20542;-90
2023/10/21 04:59:29;;;;;;;0.20;0.20;;;;;;;20.36;100.00;98965.88;4994543;28;20026;-90
2023/10/21 05:01:54;;;;;;;0.20;0.20;;;;;;;20.10;100.00;98936.16;4977167;28;20363;-90
2023/10/21 05:04:19;;;;;;;0.20;0.20;;;;;;;20.40;100.00;98977.84;4976931;28;20026;-90
2023/10/21 05:06:45;;;;;;;0.20;0.20;;;;;;;20.33;100.00;98958.31;4976112;28;20434;-90
2023/10/21 05:09:10;;;;;;;0.20;0.20;;;;;;;20.30;100.00;98967.72;4976492;28;20033;-90
2023/10/21 05:11:36;;;;;;;0.20;0.20;;;;;;;20.17;100.00;98949.22;5008964;28;20022;-90
2023/10/21 05:14:01;;;;;;;0.20;0.20;;;;;;;20.42;100.00;98992.28;4995279;28;20296;-89
2023/10/21 05:16:26;;;;;;;0.20;0.20;;;;;;;20.30;100.00;98984.66;4995913;28;20026;-89
2023/10/21 05:18:52;;;;;;;0.20;0.20;;;;;;;20.36;100.00;99011.06;5012933;28;20026;-90
2023/10/21 05:21:17;;;;;;;0.20;0.20;;;;;;;20.38;100.00;99056.59;4995349;28;20389;-90
2023/10/21 05:23:43;;;;;;;0.20;0.20;;;;;;;20.16;100.00;99081.16;5013028;28;20114;-90
2023/10/21 05:26:08;;;;;;;0.20;0.20;;;;;;;20.15;100.00;99093.72;4995562;28;20037;-90
2023/10/21 05:28:34;;;;;;;0.20;0.20;;;;;;;20.18;100.00;99094.81;4995537;28;20045;-91
2023/10/21 05:31:01;;;;;;;0.20;0.20;;;;;;;20.04;100.00;99129.97;4989342;28;20125;-90
2023/10/21 05:33:27;;;;;;;0.20;0.20;;;;;;;19.82;100.00;99136.31;5001390;28;20456;-91
2023/10/21 05:35:57;;;;;;;0.20;0.20;;;;;;;19.65;100.00;99080.41;4994097;28;20024;-90
2023/10/21 05:38:24;;;;;;;0.20;0.20;;;;;;;19.71;100.00;99039.91;4974780;28;20045;-90
2023/10/21 05:40:50;;;;;;;0.20;0.20;;;;;;;19.85;100.00;99039.41;4977057;28;20419;-90
2023/10/21 05:43:16;;;;;;;0.20;0.20;;;;;;;19.72;100.00;99044.31;4976663;28;20034;-89
2023/10/21 05:45:41;;;;;;;0.20;0.20;;;;;;;19.83;100.00;99104.00;4977105;28;20042;-90
2023/10/21 05:48:06;;;;;;;0.20;0.20;;;;;;;19.79;100.00;99125.13;4976884;28;20037;-91
2023/10/21 05:50:32;;;;;;;0.20;0.20;;;;;;;19.60;100.00;99143.84;4976966;28;20457;-90
2023/10/21 05:52:57;;;;;;;0.20;0.20;;;;;;;19.65;100.00;99173.53;4976716;28;20031;-91
2023/10/21 05:55:23;;;;;;;0.20;0.20;;;;;;;19.38;100.00;99206.50;4977159;28;20037;-91
2023/10/21 05:57:49;;;;;;;0.20;0.20;;;;;;;19.23;100.00;99216.63;4994706;28;20486;-91
2023/10/21 06:00:15;;;;;;;0.20;0.20;;;;;;;19.14;100.00;99239.00;4977318;28;20406;-92
2023/10/21 06:02:40;;;;;;;0.20;0.20;;;;;;;19.16;100.00;99270.38;4976789;28;20109;-91
2023/10/21 06:05:06;;;;;;;0.20;0.20;;;;;;;19.06;100.00;99271.44;4977155;28;20030;-94
2023/10/21 06:07:34;;;;;;;0.20;0.20;;;;;;;18.84;100.00;99221.25;4994610;28;20137;-92
2023/10/21 06:12:57;;;;;;;0.20;0.20;;;;;;;18.65;100.00;99224.97;5082138;23;20045;-93
2023/10/21 06:15:23;;;;;;;0.20;0.20;;;;;;;18.73;100.00;99219.97;5032736;28;20060;-92
2023/10/21 06:17:48;;;;;;;0.20;0.20;;;;;;;18.74;100.00;99194.16;5016082;28;20025;-92
2023/10/21 06:20:14;;;;;;;0.20;0.20;;;;;;;18.78;100.00;99197.66;5015432;28;20075;-92
2023/10/21 06:22:39;;;;;;;0.20;0.20;;;;;;;18.72;100.00;99191.00;5015779;28;20424;-92
2023/10/21 06:54:07;;;;;;;0.20;0.20;;;;;;;17.79;100.00;99156.63;5049264;22;20104;-94
2023/10/21 06:56:33;;;;;;;0.20;0.20;;;;;;;17.99;100.00;99167.81;5015820;28;20049;-93
2023/10/21 06:59:00;;;;;;;0.20;0.20;;;;;;;18.01;100.00;99164.56;5015232;28;20029;-94
2023/10/21 07:01:25;;;;;;;0.20;0.20;;;;;;;18.03;100.00;99173.38;5032201;28;20079;-94
2023/10/21 07:04:03;;;;;;;0.20;0.20;;;;;;;17.78;100.00;99169.09;5016312;28;20029;-92
2023/10/21 07:41:35;;;;;;;0.20;0.20;;;;;;;17.59;100.00;99127.72;5018894;28;20130;-94
2023/10/21 08:04:36;;;;;;;0.20;0.20;;;;;;;17.53;100.00;99217.44;5034394;22;20128;-93
2023/10/21 08:10:12;;;;;;;0.20;0.20;;;;;;;17.37;100.00;99194.09;5069818;22;20093;-93
2023/10/21 08:12:39;;;;;;;0.20;0.20;;;;;;;17.33;100.00;99196.16;5018734;28;20033;-93
2023/10/21 08:15:07;;;;;;;0.20;0.20;;;;;;;17.74;100.00;99227.47;5036310;28;20500;-93
2023/10/21 08:17:33;;;;;;;0.20;0.20;;;;;;;17.86;100.00;99279.47;5031452;28;20029;-92
2023/10/21 08:19:58;;;;;;;0.20;0.20;;;;;;;17.84;100.00;99328.94;5019303;28;20022;-93
2023/10/21 08:22:24;;;;;;;0.20;0.20;;;;;;;17.59;100.00;99352.72;5029851;28;20025;-92
2023/10/21 08:24:49;;;;;;;0.20;0.20;;;;;;;17.70;100.00;99352.53;5023159;28;20149;-93
2023/10/21 08:27:15;;;;;;;0.20;0.20;;;;;;;17.75;100.00;99333.16;5039324;28;20021;-92
2023/10/21 08:29:41;;;;;;;0.20;0.20;;;;;;;17.52;100.00;99302.22;5057596;28;20029;-93
2023/10/21 08:32:07;;;;;;;0.20;0.20;;;;;;;17.55;100.00;99276.06;5038507;28;20025;-92
2023/10/21 08:34:32;;;;;;;0.20;0.20;;;;;;;17.38;100.00;99274.41;5039729;28;20036;-92
2023/10/21 08:36:59;;;;;;;0.20;0.20;;;;;;;17.36;100.00;99268.38;5041814;28;20025;-92
2023/10/21 08:39:24;;;;;;;0.20;0.20;;;;;;;17.41;100.00;99279.94;5041653;28;20209;-92
2023/10/21 09:32:13;;;;;;;0.20;0.20;;;;;;;17.12;100.00;99330.28;5012963;28;20034;-93
2023/10/21 09:34:40;;;;;;;0.20;0.20;;;;;;;17.07;100.00;99330.75;4991703;28;20497;-91
2023/10/21 09:37:09;;;;;;;0.20;0.20;;;;;;;17.11;100.00;99336.31;4979311;28;20038;-94
2023/10/21 09:39:41;;;;;;;0.20;0.20;;;;;;;17.41;100.00;99318.50;4980518;28;20029;-94
2023/10/21 09:42:06;;;;;;;0.20;0.20;;;;;;;17.18;100.00;99314.50;4979377;28;20022;-94
2023/10/21 09:44:36;;;;;;;0.20;0.20;;;;;;;17.01;100.00;99307.97;4978397;28;20026;-94
2023/10/21 09:47:05;;;;;;;0.20;0.20;;;;;;;17.05;100.00;99293.88;4984393;28;20050;-91
2023/10/21 09:49:37;;;;;;;0.20;0.20;;;;;;;17.28;100.00;99293.03;4978066;28;20034;-94
2023/10/21 09:52:05;;;;;;;0.20;0.20;;;;;;;17.33;100.00;99300.19;4981232;28;20022;-93
2023/10/21 09:54:52;;;;;;;0.20;0.20;;;;;;;17.22;100.00;99306.00;5007028;28;20402;-93
2023/10/21 09:57:23;;;;;;;0.20;0.20;;;;;;;17.22;100.00;99286.34;4988548;28;20657;-94
2023/10/21 09:59:49;;;;;;;0.20;0.20;;;;;;;16.99;100.00;99270.25;4979997;28;20030;-95
2023/10/21 10:02:16;;;;;;;0.20;0.20;;;;;;;17.22;100.00;99272.28;5001273;28;20042;-94
2023/10/21 10:04:42;;;;;;;0.20;0.20;;;;;;;17.17;100.00;99248.28;4998678;28;20026;-94
2023/10/21 10:07:09;;;;;;;0.20;0.20;;;;;;;17.42;100.00;99252.63;4980234;28;20610;-93
2023/10/21 10:09:40;;;;;;;0.20;0.20;;;;;;;17.70;100.00;99304.69;4979922;28;20019;-94
2023/10/21 10:12:29;;;;;;;0.20;0.20;;;;;;;17.58;100.00;99306.16;4961516;28;20438;-92
2023/10/21 10:14:54;;;;;;;0.20;0.20;;;;;;;17.43;100.00;99290.75;4977207;28;20088;-89
2023/10/21 10:17:48;;;;;;;0.20;0.20;;;;;;;17.51;100.00;99258.44;4994595;28;20038;-90
2023/10/21 10:40:36;;;;;;;0.20;0.20;;;;;;;17.28;100.00;99124.38;5081072;22;20060;-91
2023/10/21 10:43:03;;;;;;;0.20;0.20;;;;;;;17.48;100.00;99115.91;4995350;28;20030;-93
2023/10/21 10:45:32;;;;;;;0.20;0.20;;;;;;;17.53;100.00;99146.34;4996845;28;20121;-92
2023/10/21 10:48:00;;;;;;;0.20;0.20;;;;;;;17.80;100.00;99166.66;4996131;28;20478;-92
2023/10/21 10:50:26;;;;;;;0.20;0.20;;;;;;;17.68;100.00;99167.28;5000163;28;20121;-92
2023/10/21 10:52:53;;;;;;;0.20;0.20;;;;;;;18.09;100.00;99187.69;5018098;28;20450;-93
2023/10/21 10:55:19;;;;;;;0.20;0.20;;;;;;;18.23;100.00;99176.13;5002124;28;20033;-93
2023/10/21 10:57:46;;;;;;;0.20;0.20;;;;;;;18.38;100.00;99187.81;5003962;28;20040;-92
2023/10/21 11:00:25;;;;;;;0.20;0.20;;;;;;;18.55;100.00;99209.13;5019485;28;20037;-93
2023/10/21 11:12:56;;;;;;;0.20;0.20;;;;;;;18.72;100.00;99174.09;4981585;28;20093;-90
2023/10/21 11:15:23;;;;;;;0.20;0.20;;;;;;;19.03;100.00;99182.13;4996068;28;20070;-93
2023/10/21 11:17:51;;;;;;;0.20;0.20;;;;;;;19.17;100.00;99207.09;4997584;28;20113;-93
2023/10/21 11:20:17;;;;;;;0.20;0.20;;;;;;;19.32;100.00;99215.94;4996639;28;20375;-92
2023/10/21 11:22:42;;;;;;;0.20;0.20;;;;;;;19.27;100.00;99228.56;4996374;28;20045;-92
2023/10/21 11:28:30;;;;;;;0.20;0.20;;;;;;;19.49;100.00;99200.53;5001660;28;20120;-90
2023/10/21 11:30:57;;;;;;;0.20;0.20;;;;;;;19.49;100.00;99197.72;4999267;28;20026;-92
2023/10/21 11:33:23;;;;;;;0.20;0.20;;;;;;;19.25;100.00;99187.97;4998758;28;20026;-91
2023/10/21 11:35:50;;;;;;;0.20;0.20;;;;;;;19.40;100.00;99183.50;4999382;28;20609;-90
2023/10/21 11:38:16;;;;;;;0.20;0.20;;;;;;;19.60;100.00;99197.44;4986046;28;20042;-90
2023/10/21 11:40:43;;;;;;;0.20;0.20;;;;;;;19.61;100.00;99199.84;4976956;28;20046;-91
2023/10/21 11:43:14;;;;;;;0.20;0.20;;;;;;;19.79;100.00;99213.41;4960461;28;20038;-90
2023/10/21 11:45:44;;;;;;;0.15;0.15;;;;;;;19.72;100.00;99202.34;4976544;28;20034;-89
2023/10/21 11:48:10;;;;;;;0.20;0.20;;;;;;;19.96;100.00;99196.38;4986424;28;20116;-90
2023/10/21 11:50:43;;;;;;;0.20;0.20;;;;;;;20.08;100.00;99192.75;4981435;28;20115;-91
2023/10/21 11:53:09;;;;;;;;;;;;;;;20.17;100.00;99194.91;4976711;28;20034;-91
2023/10/21 12:12:09;;;;;;;0.20;0.20;;;;;;;21.06;100.00;99181.41;4997030;28;20030;-91
2023/10/21 12:32:43;;;;;;;0.20;0.20;;;;;;;22.20;95.59;99170.66;4996078;28;20070;-90
2023/10/21 12:42:50;;;;;;;0.20;0.20;;;;;;;22.08;88.72;99148.88;4996259;28;20505;-93
2023/10/21 12:45:19;;;;;;;0.20;0.20;;;;;;;22.37;89.18;99149.31;4996160;28;20029;-92
2023/10/21 12:47:48;;;;;;;0.13;0.13;;;;;;;22.28;87.49;99125.84;4978824;28;20039;-94
2023/10/21 12:50:16;;;;;;;0.20;0.20;;;;;;;22.56;86.01;99146.53;4995022;28;20573;-94
2023/10/21 12:52:47;;;;;;;0.20;0.20;;;;;;;22.21;85.58;99119.22;4978822;28;20137;-94
2023/10/21 12:55:13;;;;;;;0.20;0.20;;;;;;;22.81;85.61;99123.56;4994971;28;20034;-93
2023/10/21 12:57:40;;;;;;;0.17;0.17;;;;;;;23.01;80.33;99128.78;4977641;28;20481;-89
2023/10/21 13:00:07;;;;;;;0.20;0.20;;;;;;;23.17;78.69;99107.78;4995478;28;20023;-91
2023/10/21 13:02:35;;;;;;;0.20;0.20;;;;;;;22.59;79.12;99117.25;4994677;28;20113;-91
2023/10/21 13:05:03;;;;;;;0.10;0.10;;;;;;;22.87;80.98;99120.88;4995141;28;20033;-91
2023/10/21 13:07:31;;;;;;;0.20;0.20;;;;;;;23.34;79.87;99119.59;4990281;28;20084;-92
2023/10/21 13:09:58;;;;;;;0.20;0.20;;;;;;;23.05;82.01;99109.53;4978454;28;20062;-91
2023/10/21 13:12:32;;;;;;;0.20;0.20;;;;;;;22.99;79.78;99129.25;4977079;28;20039;-92
2023/10/21 13:18:28;;;;;;;0.20;0.20;;;;;;;22.49;85.27;99091.72;4944473;28;20059;-92
2023/10/21 13:20:54;;;;;;;0.20;0.20;;;;;;;23.03;84.49;99128.31;4961471;28;20063;-90
2023/10/21 13:23:19;;;;;;;0.20;0.20;;;;;;;23.27;80.48;99134.88;4978171;28;20029;-93
2023/10/21 13:26:07;;;;;;;0.20;0.20;;;;;;;22.96;81.81;99113.19;4980549;28;20026;-92
2023/10/21 13:28:34;;;;;;;0.13;0.13;;;;;;;22.64;79.68;99119.47;4975979;28;20043;-92
2023/10/21 13:31:00;;;;;;;0.17;0.17;;;;;;;22.63;80.43;99163.22;4959015;28;20491;-92
2023/10/21 13:33:25;;;;;;;0.17;0.17;;;;;;;22.78;80.00;99169.84;4959447;28;20034;-89
2023/10/21 13:35:54;;;;;;;0.20;0.20;;;;;;;23.04;81.78;99163.91;4958795;28;20027;-91
2023/10/21 13:38:21;;;;;;;0.20;0.20;;;;;;;23.34;77.24;99182.81;4959412;28;20078;-91
2023/10/21 13:40:46;;;;;;;0.15;0.15;;;;;;;23.59;75.51;99166.69;4977129;28;20046;-91
2023/10/21 13:43:18;;;;;;;0.20;0.20;;;;;;;23.26;75.35;99176.66;4959498;28;20094;-90
2023/10/21 13:45:44;;;;;;;0.20;0.20;;;;;;;23.23;75.42;99180.47;4977399;28;20030;-91
2023/10/21 13:48:11;;;;;;;0.10;0.10;;;;;;;23.29;74.90;99186.31;4961390;28;20031;-91
2023/10/21 13:50:37;;;;;;;0.20;0.20;;;;;;;23.27;76.73;99194.47;4979974;28;20022;-92
2023/10/21 13:53:45;;;;;;;0.10;0.10;;;;;;;23.30;76.83;99176.53;4978047;28;20019;-91
2023/10/21 13:55:56;;;;;;;0.20;0.20;;;;;;;23.49;76.19;99200.00;4970426;28;20081;-90
2023/10/21 13:58:22;;;;;;;0.10;0.10;;;;;;;23.29;74.04;99180.63;4958450;28;20019;-91
2023/10/21 14:00:47;;;;;;;0.20;0.20;;;;;;;22.95;71.83;99205.19;4973742;28;20039;-91
2023/10/21 14:03:16;;;;;;;0.17;0.17;;;;;;;22.85;72.26;99195.09;4957631;28;20023;-91
2023/10/21 14:05:48;;;;;;;0.10;0.10;;;;;;;22.54;74.68;99194.41;4973679;28;20026;-91
2023/10/21 14:08:19;;;;;;;0.15;0.15;;;;;;;22.57;74.07;99207.63;4974508;28;20035;-90
2023/10/21 14:10:49;;;;;;;0.20;0.20;;;;;;;22.78;73.85;99215.22;4956971;28;20110;-91
2023/10/21 14:13:21;;;;;;;0.10;0.10;;;;;;;22.85;73.86;99214.13;4974496;28;20089;-91
2023/10/21 14:15:51;;;;;;;0.20;0.20;;;;;;;22.88;75.02;99227.41;4975657;28;20050;-91
2023/10/21 14:18:17;;;;;;;0.20;0.20;;;;;;;22.62;73.59;99224.78;4973598;28;20029;-89
2023/10/21 14:20:43;;;;;;;0.20;0.20;;;;;;;22.33;76.34;99202.53;4991320;28;20023;-89
2023/10/21 14:23:09;;;;;;;0.10;0.10;;;;;;;22.60;76.34;99230.16;4993164;28;20023;-90
2023/10/21 14:25:39;;;;;;;0.20;0.20;;;;;;;22.19;77.16;99237.09;4976347;28;20390;-89
2023/10/21 14:28:16;;;;;;;0.20;0.20;;;;;;;22.26;77.56;99241.66;4974095;28;20030;-87
2023/10/21 14:30:52;;;;;;;0.20;0.20;;;;;;;22.11;80.14;99238.63;4975293;28;20056;-89
2023/10/21 14:33:19;;;;;;;0.20;0.20;;;;;;;21.96;81.22;99244.81;4975173;28;20053;-88
2023/10/21 14:35:47;;;;;;;0.20;0.20;;;;;;;22.03;82.98;99243.75;4992799;28;20105;-89
2023/10/21 14:38:14;;;;;;;0.20;0.20;;;;;;;21.86;82.92;99237.50;4975046;28;20026;-89
2023/10/21 14:40:41;;;;;;;0.20;0.20;;;;;;;21.85;83.02;99258.59;4992590;28;20039;-89
2023/10/21 14:43:09;;;;;;;0.10;0.10;;;;;;;21.69;83.95;99250.31;4993123;28;20541;-89
2023/10/21 14:45:40;;;;;;;0.10;0.10;;;;;;;21.41;84.68;99255.78;4992893;28;20494;-89
2023/10/21 14:48:07;;;;;;;0.20;0.20;;;;;;;21.34;85.86;99236.19;4992516;28;20870;-89
2023/10/21 14:50:33;;;;;;;0.10;0.10;;;;;;;21.35;87.28;99251.91;4975165;28;20113;-89
2023/10/21 14:53:00;;;;;;;0.20;0.20;;;;;;;21.24;88.58;99254.31;4975137;28;20062;-89
2023/10/21 14:55:26;;;;;;;0.10;0.10;;;;;;;21.04;87.90;99234.00;4975471;28;20031;-89
2023/10/21 14:57:52;;;;;;;0.20;0.20;;;;;;;21.35;87.54;99259.63;4992781;28;20027;-89
2023/10/21 15:00:22;;;;;;;0.20;0.20;;;;;;;21.24;88.39;99251.47;4991318;28;20423;-89
2023/10/21 15:02:52;;;;;;;0.20;0.20;;;;;;;21.25;90.26;99260.75;4992920;28;20054;-88
2023/10/21 15:05:18;;;;;;;0.15;0.15;;;;;;;21.09;90.45;99258.88;4991525;28;20019;-89
2023/10/21 15:07:44;;;;;;;0.20;0.20;;;;;;;21.00;92.07;99256.00;4974666;28;20546;-88